createdAt,value
2022-12-20T00:02:01.196Z,17.00
2022-12-20T00:04:30.031Z,16.57
2022-12-20T00:06:58.866Z,17.80
2022-12-20T00:09:29.080Z,16.50
2022-12-20T00:11:57.741Z,17.80
2022-12-20T00:14:26.515Z,20.00
2022-12-20T00:16:55.288Z,17.50
2022-12-20T00:19:24.136Z,16.23
2022-12-20T00:21:53.042Z,16.70
2022-12-20T00:24:26.046Z,17.77
2022-12-20T00:27:02.568Z,15.73
2022-12-20T00:29:31.375Z,15.27
2022-12-20T00:31:59.940Z,16.97
2022-12-20T00:34:28.634Z,16.00
2022-12-20T00:37:01.214Z,17.63
2022-12-20T00:39:29.894Z,16.07
2022-12-20T00:41:58.959Z,15.57
2022-12-20T00:44:30.270Z,17.30
2022-12-20T00:47:01.629Z,18.13
2022-12-20T00:49:30.357Z,15.63
2022-12-20T00:51:59.182Z,17.90
2022-12-20T00:54:27.681Z,13.77
2022-12-20T00:56:56.606Z,14.30
2022-12-20T00:59:25.731Z,15.20
2022-12-20T01:01:55.951Z,17.70
2022-12-20T01:04:24.762Z,13.73
2022-12-20T01:06:53.553Z,16.10
2022-12-20T01:09:22.103Z,13.40
2022-12-20T01:11:50.618Z,13.70
2022-12-20T01:18:32.921Z,14.10
2022-12-20T01:21:06.264Z,14.40
2022-12-20T01:23:35.413Z,15.87
2022-12-20T01:26:05.525Z,16.17
2022-12-20T01:28:34.649Z,14.30
2022-12-20T01:31:03.253Z,15.33
2022-12-20T01:33:33.423Z,14.53
2022-12-20T01:36:03.918Z,17.47
2022-12-20T01:38:32.750Z,16.73
2022-12-20T01:41:01.680Z,17.07
2022-12-20T01:43:49.037Z,17.57
2022-12-20T01:46:18.058Z,16.03
2022-12-20T01:48:50.731Z,15.10
2022-12-20T01:51:20.221Z,16.50
2022-12-20T01:53:49.473Z,18.37
2022-12-20T01:56:18.221Z,14.90
2022-12-20T01:58:49.162Z,16.90
2022-12-20T02:01:18.108Z,16.70
2022-12-20T02:03:48.426Z,15.60
2022-12-20T02:06:19.495Z,18.10
2022-12-20T02:08:49.725Z,16.67
2022-12-20T02:11:48.593Z,16.03
2022-12-20T02:14:25.014Z,14.90
2022-12-20T02:16:59.295Z,17.50
2022-12-20T02:19:51.613Z,15.57
2022-12-20T02:22:34.355Z,14.43
2022-12-20T02:25:20.649Z,12.70
2022-12-20T02:27:56.451Z,14.23
2022-12-20T02:30:30.584Z,16.00
2022-12-20T02:33:01.713Z,14.50
2022-12-20T02:35:33.298Z,13.87
2022-12-20T02:38:03.469Z,16.20
2022-12-20T02:40:34.952Z,16.20
2022-12-20T02:43:25.642Z,14.60
2022-12-20T02:45:56.908Z,14.70
2022-12-20T02:48:29.543Z,14.93
2022-12-20T02:50:59.113Z,15.63
2022-12-20T02:53:29.483Z,17.40
2022-12-20T02:56:01.507Z,14.40
2022-12-20T02:58:35.554Z,13.87
2022-12-20T03:01:09.525Z,16.67
2022-12-20T03:03:45.585Z,15.67
2022-12-20T03:06:14.767Z,15.80
2022-12-20T03:08:44.024Z,14.20
2022-12-20T03:11:12.505Z,15.53
2022-12-20T03:13:41.247Z,14.27
2022-12-20T03:16:12.085Z,14.53
2022-12-20T03:18:40.503Z,13.40
2022-12-20T03:21:09.269Z,13.80
2022-12-20T03:23:38.041Z,14.17
2022-12-20T03:26:06.993Z,14.70
2022-12-20T03:28:35.791Z,16.37
2022-12-20T03:31:04.747Z,14.43
2022-12-20T03:33:35.281Z,15.37
2022-12-20T03:36:04.130Z,15.97
2022-12-20T03:38:32.776Z,17.40
2022-12-20T03:41:01.176Z,14.93
2022-12-20T03:43:32.448Z,15.47
2022-12-20T03:46:01.125Z,14.93
2022-12-20T03:48:30.346Z,16.50
2022-12-20T03:51:00.684Z,14.10
2022-12-20T03:53:29.687Z,13.00
2022-12-20T03:55:58.856Z,14.50
2022-12-20T03:58:27.490Z,14.40
2022-12-20T04:00:56.408Z,12.97
2022-12-20T04:03:27.583Z,14.90
2022-12-20T04:05:56.559Z,13.03
2022-12-20T04:08:26.262Z,13.17
2022-12-20T04:11:11.823Z,14.00
2022-12-20T04:13:40.357Z,14.30
2022-12-20T04:16:09.228Z,13.10
2022-12-20T04:18:37.618Z,12.23
2022-12-20T04:21:15.842Z,12.67
2022-12-20T04:23:45.678Z,12.97
2022-12-20T04:26:14.763Z,13.27
2022-12-20T04:28:43.465Z,14.20
2022-12-20T04:31:11.991Z,12.67
2022-12-20T04:33:40.788Z,13.50
2022-12-20T04:36:09.445Z,13.47
2022-12-20T04:38:37.790Z,14.20
2022-12-20T04:41:11.143Z,14.10
2022-12-20T04:43:40.079Z,11.60
2022-12-20T04:46:08.771Z,14.93
2022-12-20T04:48:58.264Z,15.77
2022-12-20T04:51:27.865Z,12.70
2022-12-20T04:53:55.959Z,12.87
2022-12-20T04:56:27.903Z,15.30
2022-12-20T04:58:57.853Z,12.87
2022-12-20T05:01:32.478Z,14.27
2022-12-20T05:04:01.075Z,14.37
2022-12-20T05:06:29.894Z,13.47
2022-12-20T05:08:58.452Z,15.00
2022-12-20T05:11:28.409Z,13.03
2022-12-20T05:13:56.789Z,11.90
2022-12-20T05:16:31.486Z,11.47
2022-12-20T05:19:32.163Z,12.77
2022-12-20T05:22:18.307Z,14.30
2022-12-20T05:25:04.304Z,12.63
2022-12-20T05:27:34.082Z,12.70
2022-12-20T05:30:04.063Z,14.70
2022-12-20T05:32:32.952Z,12.30
2022-12-20T05:35:02.881Z,13.30
2022-12-20T05:37:31.504Z,13.33
2022-12-20T05:40:00.296Z,13.50
2022-12-20T05:42:28.639Z,12.80
2022-12-20T05:45:03.410Z,14.00
2022-12-20T05:47:34.088Z,12.57
2022-12-20T05:50:02.908Z,16.60
2022-12-20T05:52:31.648Z,14.93
2022-12-20T05:55:00.408Z,14.10
2022-12-20T05:57:31.925Z,13.90
2022-12-20T06:00:00.902Z,15.87
2022-12-20T06:02:30.851Z,13.10
2022-12-20T06:04:59.619Z,15.67
2022-12-20T06:07:29.832Z,12.50
2022-12-20T06:09:58.467Z,14.90
2022-12-20T06:12:27.252Z,13.53
2022-12-20T06:14:55.860Z,15.20
2022-12-20T06:17:24.479Z,15.07
2022-12-20T06:19:54.381Z,14.43
2022-12-20T06:22:23.330Z,14.60
2022-12-20T06:24:51.867Z,17.00
2022-12-20T06:27:22.409Z,16.40
2022-12-20T06:29:54.672Z,22.00
2022-12-20T06:32:23.250Z,23.53
2022-12-20T06:34:52.443Z,25.10
2022-12-20T06:37:22.496Z,22.40
2022-12-20T06:39:51.162Z,20.77
2022-12-20T06:42:19.526Z,20.47
2022-12-20T06:44:48.238Z,19.30
2022-12-20T06:47:16.865Z,18.37
2022-12-20T06:49:48.662Z,19.53
2022-12-20T06:52:17.178Z,16.77
2022-12-20T06:54:47.153Z,17.10
2022-12-20T06:57:16.321Z,18.17
2022-12-20T06:59:47.621Z,15.80
2022-12-20T07:02:17.376Z,15.50
2022-12-20T07:04:46.156Z,13.77
2022-12-20T07:07:15.013Z,14.57
2022-12-20T07:09:43.662Z,16.10
2022-12-20T07:12:13.791Z,15.00
2022-12-20T07:14:42.359Z,17.87
2022-12-20T07:17:11.375Z,17.13
2022-12-20T07:19:43.058Z,18.40
2022-12-20T07:22:15.751Z,18.47
2022-12-20T07:24:44.151Z,17.90
2022-12-20T07:27:14.259Z,19.60
2022-12-20T07:29:42.934Z,18.10
2022-12-20T07:32:13.725Z,18.97
2022-12-20T07:34:42.617Z,16.57
2022-12-20T07:37:12.138Z,16.93
2022-12-20T07:39:42.547Z,18.47
2022-12-20T07:42:14.280Z,17.80
2022-12-20T07:44:43.839Z,15.97
2022-12-20T07:47:15.857Z,14.87
2022-12-20T07:49:44.517Z,17.23
2022-12-20T07:52:14.769Z,18.43
2022-12-20T07:54:46.218Z,18.53
2022-12-20T07:57:18.655Z,21.70
2022-12-20T07:59:50.745Z,24.80
2022-12-20T08:02:22.967Z,19.90
2022-12-20T08:04:51.971Z,19.50
2022-12-20T08:07:20.675Z,18.13
2022-12-20T08:09:49.801Z,19.20
2022-12-20T08:12:20.676Z,21.50
2022-12-20T08:15:01.816Z,41.20
2022-12-20T08:17:30.388Z,52.90
2022-12-20T08:20:00.776Z,49.40
2022-12-20T08:22:29.450Z,46.50
2022-12-20T08:24:58.484Z,45.17
2022-12-20T08:27:31.311Z,45.17
2022-12-20T08:30:00.239Z,33.77
2022-12-20T08:32:30.298Z,36.37
2022-12-20T08:39:04.325Z,20.70
2022-12-20T08:41:33.309Z,23.40
2022-12-20T08:44:04.214Z,22.60
2022-12-20T08:46:33.117Z,23.77
2022-12-20T08:49:01.667Z,18.80
2022-12-20T08:51:32.723Z,17.93
2022-12-20T08:54:02.873Z,17.80
2022-12-20T08:56:31.639Z,16.67
2022-12-20T08:59:00.343Z,18.93
2022-12-20T09:01:33.817Z,16.63
2022-12-20T09:04:02.758Z,16.03
2022-12-20T09:06:31.585Z,17.60
2022-12-20T09:09:01.564Z,16.57
2022-12-20T09:11:31.460Z,15.97
2022-12-20T09:14:02.249Z,16.33
2022-12-20T09:16:33.796Z,18.10
2022-12-20T09:19:06.030Z,17.00
2022-12-20T09:21:38.794Z,17.70
2022-12-20T09:24:08.337Z,20.30
2022-12-20T09:26:37.371Z,20.33
2022-12-20T09:29:06.676Z,24.33
2022-12-20T09:31:37.211Z,23.60
2022-12-20T09:34:06.186Z,22.87
2022-12-20T09:36:34.677Z,23.57
2022-12-20T09:39:03.233Z,19.17
2022-12-20T09:41:37.400Z,18.97
2022-12-20T09:44:13.983Z,19.63
2022-12-20T09:46:45.089Z,18.50
2022-12-20T09:49:17.892Z,19.03
2022-12-20T09:52:20.147Z,18.93
2022-12-20T09:54:54.149Z,19.40
2022-12-20T09:57:30.680Z,17.87
2022-12-20T09:59:59.518Z,21.50
2022-12-20T10:05:25.720Z,18.77
2022-12-20T10:07:57.548Z,20.47
2022-12-20T10:10:45.925Z,17.50
2022-12-20T10:13:25.449Z,17.30
2022-12-20T10:15:56.382Z,16.70
2022-12-20T10:18:35.627Z,18.47
2022-12-20T10:21:10.244Z,17.40
2022-12-20T10:23:42.201Z,17.80
2022-12-20T10:26:15.364Z,19.87
2022-12-20T10:28:46.859Z,16.90
2022-12-20T10:31:19.983Z,19.00
2022-12-20T10:33:50.180Z,19.13
2022-12-20T10:36:27.422Z,18.40
2022-12-20T10:38:57.762Z,19.53
2022-12-20T10:41:28.423Z,19.90
2022-12-20T10:44:01.711Z,18.33
2022-12-20T10:46:56.828Z,18.80
2022-12-20T10:49:32.709Z,16.83
2022-12-20T10:52:03.777Z,17.70
2022-12-20T10:54:35.908Z,17.47
2022-12-20T10:57:15.011Z,17.10
2022-12-20T10:59:46.999Z,19.37
2022-12-20T11:02:30.358Z,22.07
2022-12-20T11:05:17.547Z,30.30
2022-12-20T11:11:15.238Z,21.23
2022-12-20T11:13:44.846Z,20.83
2022-12-20T11:16:25.868Z,19.43
2022-12-20T11:19:00.495Z,17.27
2022-12-20T11:21:35.151Z,16.70
2022-12-20T11:24:10.972Z,16.20
2022-12-20T11:27:00.571Z,24.10
2022-12-20T11:29:45.135Z,25.20
2022-12-20T11:32:23.844Z,19.50
2022-12-20T11:35:00.495Z,16.70
2022-12-20T11:37:36.341Z,17.23
2022-12-20T11:40:18.869Z,18.83
2022-12-20T11:42:56.639Z,16.07
2022-12-20T11:45:54.187Z,16.13
2022-12-20T11:48:36.217Z,16.13
2022-12-20T11:51:09.670Z,16.87
2022-12-20T11:53:46.249Z,15.97
2022-12-20T11:56:18.518Z,15.90
2022-12-20T11:58:52.097Z,17.63
2022-12-20T12:01:23.661Z,16.40
2022-12-20T12:04:06.592Z,16.33
2022-12-20T12:06:41.512Z,17.23
2022-12-20T12:09:26.174Z,18.17
2022-12-20T12:12:08.795Z,16.10
2022-12-20T12:14:49.784Z,17.20
2022-12-20T12:17:25.438Z,15.97
2022-12-20T12:19:56.735Z,16.77
2022-12-20T12:22:30.069Z,14.40
2022-12-20T12:25:02.106Z,15.33
2022-12-20T12:27:30.962Z,17.97
2022-12-20T12:30:00.574Z,15.90
2022-12-20T12:32:36.963Z,15.40
2022-12-20T12:35:38.736Z,17.40
2022-12-20T12:38:22.323Z,18.23
2022-12-20T12:41:29.700Z,19.73
2022-12-20T12:44:01.482Z,18.53
2022-12-20T12:46:31.921Z,22.23
2022-12-20T12:49:03.020Z,22.20
2022-12-20T12:51:33.909Z,21.10
2022-12-20T12:54:16.096Z,21.23
2022-12-20T12:56:47.391Z,21.43
2022-12-20T12:59:46.438Z,19.70
2022-12-20T13:02:28.965Z,19.67
2022-12-20T13:05:00.203Z,21.57
2022-12-20T13:07:44.071Z,21.00
2022-12-20T13:10:47.258Z,21.93
2022-12-20T13:13:20.033Z,23.10
2022-12-20T13:15:58.307Z,22.30
2022-12-20T13:18:29.945Z,21.30
2022-12-20T13:21:19.766Z,20.10
2022-12-20T13:23:48.299Z,22.87
2022-12-20T13:26:43.829Z,23.20
2022-12-20T13:29:27.015Z,21.10
2022-12-20T13:31:56.132Z,21.43
2022-12-20T13:34:40.016Z,20.73
2022-12-20T13:37:27.560Z,19.77
2022-12-20T13:39:57.187Z,25.30
2022-12-20T13:42:42.434Z,20.13
2022-12-20T13:45:13.017Z,18.97
2022-12-20T13:47:48.898Z,20.87
2022-12-20T13:50:35.824Z,20.37
2022-12-20T13:53:05.647Z,19.10
2022-12-20T13:55:37.609Z,15.80
2022-12-20T13:58:08.724Z,15.67
2022-12-20T14:00:38.886Z,17.33
2022-12-20T14:03:18.316Z,19.27
2022-12-20T14:05:48.426Z,21.27
2022-12-20T14:08:18.962Z,20.30
2022-12-20T14:10:47.821Z,20.47
2022-12-20T14:13:22.650Z,22.30
2022-12-20T14:15:52.331Z,19.67
2022-12-20T14:18:22.906Z,19.83
2022-12-20T14:20:55.150Z,20.50
2022-12-20T14:23:25.984Z,20.53
2022-12-20T14:25:59.297Z,18.93
2022-12-20T14:28:31.568Z,19.47
2022-12-20T14:31:02.248Z,18.87
2022-12-20T14:33:33.513Z,18.07
2022-12-20T14:36:13.070Z,21.00
2022-12-20T14:38:42.216Z,30.43
2022-12-20T14:41:32.147Z,29.50
2022-12-20T14:44:05.494Z,23.80
2022-12-20T14:46:34.764Z,23.80
2022-12-20T14:49:27.644Z,20.00
2022-12-20T14:52:14.845Z,19.87
2022-12-20T14:57:45.017Z,17.47
2022-12-20T15:00:22.763Z,18.97
2022-12-20T15:02:54.570Z,17.43
2022-12-20T15:05:45.589Z,16.40
2022-12-20T15:08:18.464Z,20.60
2022-12-20T15:11:00.249Z,18.27
2022-12-20T15:13:32.099Z,19.70
2022-12-20T15:16:02.775Z,21.13
2022-12-20T15:18:31.954Z,22.87
2022-12-20T15:21:04.987Z,17.70
2022-12-20T15:23:35.668Z,19.20
2022-12-20T15:26:04.291Z,18.00
2022-12-20T15:28:32.988Z,18.27
2022-12-20T15:31:02.044Z,20.60
2022-12-20T15:33:33.241Z,19.40
2022-12-20T15:36:01.872Z,17.87
2022-12-20T15:38:54.679Z,21.57
2022-12-20T15:41:23.509Z,18.07
2022-12-20T15:43:55.749Z,23.70
2022-12-20T15:46:26.725Z,22.90
2022-12-20T15:48:55.233Z,20.40
2022-12-20T15:51:28.116Z,20.60
2022-12-20T15:53:56.876Z,19.10
2022-12-20T15:56:29.070Z,24.27
2022-12-20T15:58:57.898Z,20.57
2022-12-20T16:01:33.303Z,18.87
2022-12-20T16:04:08.255Z,18.47
2022-12-20T16:06:42.616Z,19.37
2022-12-20T16:09:11.352Z,18.90
2022-12-20T16:11:42.210Z,21.57
2022-12-20T16:14:15.877Z,17.90
2022-12-20T16:16:45.798Z,17.70
2022-12-20T16:19:14.448Z,17.83
2022-12-20T16:21:45.003Z,19.30
2022-12-20T16:24:15.899Z,17.30
2022-12-20T16:26:46.591Z,17.87
2022-12-20T16:29:15.478Z,17.93
2022-12-20T16:31:44.653Z,17.07
2022-12-20T16:34:14.932Z,18.20
2022-12-20T16:36:44.101Z,17.97
2022-12-20T16:39:13.901Z,16.20
2022-12-20T16:41:44.609Z,18.10
2022-12-20T16:44:17.404Z,18.80
2022-12-20T16:46:45.925Z,18.40
2022-12-20T16:49:20.333Z,30.80
2022-12-20T16:51:51.011Z,23.50
2022-12-20T16:54:21.557Z,22.07
2022-12-20T16:56:55.624Z,19.97
2022-12-20T16:59:26.297Z,20.87
2022-12-20T17:02:02.283Z,18.50
2022-12-20T17:04:31.794Z,16.90
2022-12-20T17:07:00.925Z,16.27
2022-12-20T17:12:16.790Z,20.10
2022-12-20T17:14:47.414Z,22.37
2022-12-20T17:17:17.673Z,23.87
2022-12-20T17:19:48.303Z,23.53
2022-12-20T17:25:04.986Z,28.70
2022-12-20T17:27:33.573Z,24.67
2022-12-20T17:30:03.947Z,21.70
2022-12-20T17:32:32.671Z,23.30
2022-12-20T17:35:01.405Z,20.60
2022-12-20T17:37:29.895Z,25.10
2022-12-20T17:39:59.080Z,25.60
2022-12-20T17:42:31.519Z,28.23
2022-12-20T17:45:00.429Z,24.47
2022-12-20T17:47:30.527Z,24.67
2022-12-20T17:50:01.810Z,26.57
2022-12-20T17:52:30.462Z,24.43
2022-12-20T17:54:59.099Z,23.50
2022-12-20T17:57:27.722Z,22.20
2022-12-20T17:59:58.843Z,27.43
2022-12-20T18:02:33.308Z,25.60
2022-12-20T18:05:02.168Z,23.10
2022-12-20T18:07:30.952Z,21.00
2022-12-20T18:09:59.700Z,18.73
2022-12-20T18:12:32.586Z,21.17
2022-12-20T18:15:07.221Z,19.10
2022-12-20T18:17:37.763Z,19.90
2022-12-20T18:20:11.320Z,25.30
2022-12-20T18:22:43.504Z,24.23
2022-12-20T18:25:14.161Z,24.10
2022-12-20T18:27:44.035Z,20.60
2022-12-20T18:30:13.838Z,22.50
2022-12-20T18:32:44.227Z,23.80
2022-12-20T18:35:13.163Z,24.47
2022-12-20T18:37:42.698Z,25.57
2022-12-20T18:40:18.353Z,21.47
2022-12-20T18:42:47.031Z,24.23
2022-12-20T18:45:18.586Z,22.47
2022-12-20T18:47:48.771Z,22.20
2022-12-20T18:50:46.697Z,22.63
2022-12-20T18:53:15.277Z,21.03
2022-12-20T18:55:45.508Z,20.50
2022-12-20T18:58:14.541Z,21.90
2022-12-20T19:00:45.711Z,21.07
2022-12-20T19:03:16.014Z,17.63
2022-12-20T19:05:45.179Z,20.03
2022-12-20T19:08:13.910Z,23.90
2022-12-20T19:10:42.646Z,18.50
2022-12-20T19:13:11.358Z,19.47
2022-12-20T19:15:44.414Z,19.50
2022-12-20T19:18:13.081Z,19.57
2022-12-20T19:20:43.265Z,18.40
2022-12-20T19:23:12.493Z,20.87
2022-12-20T19:25:41.834Z,19.10
2022-12-20T19:28:10.919Z,18.27
2022-12-20T19:30:43.044Z,18.87
2022-12-20T19:33:11.835Z,18.13
2022-12-20T19:35:56.863Z,17.93
2022-12-20T19:38:27.269Z,19.00
2022-12-20T19:40:56.190Z,19.70
2022-12-20T19:43:25.449Z,19.97
2022-12-20T19:45:54.425Z,20.50
2022-12-20T19:48:23.381Z,19.47
2022-12-20T19:50:52.151Z,20.07
2022-12-20T19:53:21.404Z,21.87
2022-12-20T19:55:55.310Z,21.17
2022-12-20T19:58:24.563Z,21.10
2022-12-20T20:00:53.702Z,21.10
2022-12-20T20:03:33.259Z,23.23
2022-12-20T20:06:02.257Z,20.23
2022-12-20T20:08:31.203Z,21.67
2022-12-20T20:11:08.825Z,18.57
2022-12-20T20:13:38.925Z,18.87
2022-12-20T20:16:08.636Z,16.77
2022-12-20T20:18:38.586Z,18.87
2022-12-20T20:21:09.367Z,19.90
2022-12-20T20:23:38.823Z,19.97
2022-12-20T20:26:10.651Z,20.47
2022-12-20T20:28:45.189Z,17.90
2022-12-20T20:31:17.671Z,16.77
2022-12-20T20:33:51.751Z,22.83
2022-12-20T20:36:22.743Z,23.00
2022-12-20T20:38:52.585Z,22.50
2022-12-20T20:41:24.064Z,20.47
2022-12-20T20:43:53.004Z,16.53
2022-12-20T20:46:22.072Z,17.53
2022-12-20T20:48:50.742Z,17.83
2022-12-20T20:51:19.312Z,18.90
2022-12-20T20:53:47.747Z,18.00
2022-12-20T20:56:16.383Z,18.43
2022-12-20T20:58:47.077Z,20.93
2022-12-20T21:01:15.709Z,17.20
2022-12-20T21:03:44.641Z,17.40
2022-12-20T21:06:39.324Z,19.17
2022-12-20T21:09:02.630Z,18.63
2022-12-20T21:11:31.351Z,15.00
2022-12-20T21:14:01.548Z,15.83
2022-12-20T21:16:30.098Z,17.40
2022-12-20T21:19:00.207Z,17.20
2022-12-20T21:21:28.876Z,17.00
2022-12-20T21:24:01.888Z,19.23
2022-12-20T21:26:30.586Z,14.50
2022-12-20T21:28:59.682Z,15.53
2022-12-20T21:31:31.124Z,16.10
2022-12-20T21:33:59.937Z,17.63
2022-12-20T21:36:29.048Z,17.53
2022-12-20T21:38:58.777Z,20.43
2022-12-20T21:41:29.605Z,21.97
2022-12-20T21:44:02.037Z,20.33
2022-12-20T21:46:33.255Z,18.23
2022-12-20T21:49:01.795Z,21.33
2022-12-20T21:51:31.848Z,23.50
2022-12-20T21:54:01.682Z,21.80
2022-12-20T21:56:32.341Z,19.80
2022-12-20T21:59:00.969Z,16.47
2022-12-20T22:01:31.864Z,15.57
2022-12-20T22:04:15.399Z,17.10
2022-12-20T22:06:45.187Z,15.17
2022-12-20T22:09:13.933Z,20.20
2022-12-20T22:11:42.450Z,17.37
2022-12-20T22:14:14.866Z,18.17
2022-12-20T22:16:47.311Z,15.43
2022-12-20T22:19:16.155Z,14.90
2022-12-20T22:21:46.150Z,15.40
2022-12-20T22:24:14.563Z,15.10
2022-12-20T22:26:43.190Z,15.00
2022-12-20T22:29:11.556Z,13.40
2022-12-20T22:31:42.952Z,14.83
2022-12-20T22:35:11.133Z,14.17
2022-12-20T22:37:43.942Z,11.23
2022-12-20T22:40:16.147Z,13.03
2022-12-20T22:42:44.892Z,16.93
2022-12-20T22:45:14.039Z,14.77
2022-12-20T22:50:28.897Z,14.20
2022-12-20T22:52:59.974Z,17.50
2022-12-20T22:55:31.382Z,13.47
2022-12-20T22:58:00.117Z,12.17
2022-12-20T23:00:28.814Z,13.10
2022-12-20T23:02:57.779Z,14.60
2022-12-20T23:05:26.287Z,13.10
2022-12-20T23:07:55.086Z,14.77
2022-12-20T23:10:42.602Z,14.37
2022-12-20T23:13:30.150Z,13.63
2022-12-20T23:15:58.782Z,12.27
2022-12-20T23:18:27.393Z,12.63
2022-12-20T23:21:13.391Z,12.30
2022-12-20T23:23:42.115Z,12.37
2022-12-20T23:26:14.148Z,13.47
2022-12-20T23:28:42.800Z,11.27
2022-12-20T23:31:12.413Z,11.07
2022-12-20T23:33:42.224Z,12.57
2022-12-20T23:36:12.797Z,11.07
2022-12-20T23:38:41.398Z,10.30
2022-12-20T23:41:10.882Z,11.03
2022-12-20T23:44:02.623Z,9.90
2022-12-20T23:46:55.847Z,11.70
2022-12-20T23:49:24.246Z,10.97
2022-12-20T23:51:52.917Z,10.90
2022-12-20T23:54:21.567Z,13.10
2022-12-20T23:56:50.657Z,12.90
2022-12-20T23:59:21.019Z,11.53
